Time;durP1;ratioP1;P1;durP2;ratioP2;P2;SDS_P1;SDS_P2;PMS_P1;PMS_P2;Temp;Humidity;BMP_temperature;BMP_pressure;BME280_temperature;BME280_humidity;BME280_pressure;Samples;Min_cycle;Max_cycle;Signal;HPM_P1;HPM_P2
2021/09/12 00:01:21;;;;;;;16.98;5.85;;;18.60;93.20;;;;;;5032017;28;20445;-80
2021/09/12 00:03:47;;;;;;;13.32;6.32;;;18.60;93.50;;;;;;5015597;28;20069;-81
2021/09/12 00:06:13;;;;;;;14.82;6.47;;;18.60;93.30;;;;;;4998855;28;20064;-80
2021/09/12 00:08:38;;;;;;;13.18;5.85;;;18.50;93.30;;;;;;5016660;28;20038;-80
2021/09/12 00:11:05;;;;;;;14.00;6.95;;;18.60;93.40;;;;;;5015898;28;20026;-80
2021/09/12 00:13:31;;;;;;;16.98;6.93;;;18.60;93.40;;;;;;5015533;28;20033;-80
2021/09/12 00:15:57;;;;;;;17.42;7.53;;;18.50;93.70;;;;;;5032352;28;20010;-80
2021/09/12 00:18:23;;;;;;;17.73;7.13;;;18.50;93.50;;;;;;4999051;28;20088;-80
2021/09/12 00:20:49;;;;;;;17.73;8.13;;;18.50;93.50;;;;;;5016565;28;20108;-80
2021/09/12 00:23:14;;;;;;;13.90;7.07;;;18.50;93.50;;;;;;5016527;28;20065;-80
2021/09/12 00:25:40;;;;;;;15.95;7.72;;;18.50;93.50;;;;;;5016811;28;20033;-80
2021/09/12 00:28:06;;;;;;;18.00;7.25;;;18.50;93.60;;;;;;5015142;28;20497;-80
2021/09/12 00:30:32;;;;;;;19.85;7.63;;;18.50;93.60;;;;;;5015065;28;20029;-80
2021/09/12 00:32:57;;;;;;;17.75;6.53;;;18.50;93.60;;;;;;4998759;28;20049;-80
2021/09/12 00:35:23;;;;;;;16.67;8.05;;;18.40;93.60;;;;;;5015564;28;20026;-80
2021/09/12 00:37:50;;;;;;;18.65;7.40;;;18.50;93.60;;;;;;5016117;28;20038;-80
2021/09/12 00:40:20;;;;;;;19.48;7.70;;;18.50;93.70;;;;;;5016349;28;20030;-77
2021/09/12 00:42:46;;;;;;;15.75;7.82;;;18.50;93.60;;;;;;5015310;28;20143;-80
2021/09/12 00:45:11;;;;;;;17.52;7.78;;;18.50;93.60;;;;;;4998523;28;20108;-80
2021/09/12 00:47:37;;;;;;;13.88;6.90;;;18.40;93.70;;;;;;5014886;28;20365;-80
2021/09/12 00:50:04;;;;;;;19.23;7.30;;;18.40;93.70;;;;;;4982257;28;20033;-80
2021/09/12 00:52:32;;;;;;;17.50;7.78;;;18.40;93.70;;;;;;5014787;28;20113;-80
2021/09/12 00:55:00;;;;;;;13.68;7.47;;;18.40;93.70;;;;;;5014671;28;20026;-80
2021/09/12 00:57:32;;;;;;;20.10;7.75;;;18.40;93.70;;;;;;5015857;28;20510;-80
2021/09/12 00:59:58;;;;;;;15.50;8.07;;;18.40;93.80;;;;;;5015780;28;20030;-80
2021/09/12 01:02:24;;;;;;;12.20;6.38;;;18.40;93.70;;;;;;5014479;28;20076;-79
2021/09/12 01:04:50;;;;;;;19.08;7.28;;;18.40;93.70;;;;;;5014486;28;20493;-80
2021/09/12 01:07:15;;;;;;;18.27;8.02;;;18.30;93.70;;;;;;4998101;28;20072;-80
2021/09/12 01:09:41;;;;;;;14.95;8.20;;;18.40;93.70;;;;;;5014465;28;20053;-79
2021/09/12 01:12:08;;;;;;;12.95;8.02;;;18.40;93.70;;;;;;5014342;28;20030;-80
2021/09/12 01:14:35;;;;;;;15.52;8.90;;;18.30;93.70;;;;;;5014531;28;20116;-79
2021/09/12 01:17:01;;;;;;;13.40;8.15;;;18.30;93.70;;;;;;5014664;28;20060;-80
2021/09/12 01:19:29;;;;;;;16.23;8.07;;;18.30;93.70;;;;;;5014429;28;20033;-80
2021/09/12 01:22:03;;;;;;;14.85;8.48;;;18.30;93.70;;;;;;4997863;28;20112;-80
2021/09/12 01:24:30;;;;;;;14.00;7.78;;;18.30;93.70;;;;;;5015231;28;20034;-81
2021/09/12 01:26:56;;;;;;;14.30;8.40;;;18.30;93.70;;;;;;4987692;28;20034;-80
2021/09/12 01:29:22;;;;;;;14.68;7.65;;;18.20;93.60;;;;;;5014884;28;20394;-80
2021/09/12 01:31:47;;;;;;;14.18;8.10;;;18.20;93.70;;;;;;5014658;28;20482;-81
2021/09/12 01:34:13;;;;;;;15.75;7.72;;;18.20;93.70;;;;;;5013841;28;20496;-80
2021/09/12 01:36:39;;;;;;;15.52;8.80;;;18.20;93.70;;;;;;5015005;28;20022;-80
2021/09/12 01:39:06;;;;;;;14.20;7.93;;;18.10;93.60;;;;;;5015014;28;20157;-81
2021/09/12 01:41:32;;;;;;;14.00;8.43;;;18.10;93.60;;;;;;5014938;28;20084;-81
2021/09/12 01:44:00;;;;;;;17.63;9.40;;;18.10;93.60;;;;;;4997268;28;20022;-80
2021/09/12 01:46:26;;;;;;;14.98;7.45;;;18.00;93.60;;;;;;5014730;28;20041;-80
2021/09/12 01:48:54;;;;;;;17.80;7.60;;;18.00;93.60;;;;;;4997385;28;20029;-80
2021/09/12 01:51:20;;;;;;;13.50;7.70;;;17.90;93.60;;;;;;5014666;28;20447;-80
2021/09/12 01:53:47;;;;;;;16.23;8.88;;;17.90;93.70;;;;;;5029894;28;20117;-80
2021/09/12 01:56:12;;;;;;;14.02;8.82;;;17.90;93.70;;;;;;4997106;28;20387;-81
2021/09/12 01:58:38;;;;;;;16.77;8.93;;;17.80;93.60;;;;;;5013929;28;20030;-80
2021/09/12 02:01:05;;;;;;;15.27;7.53;;;17.80;93.70;;;;;;5013501;28;20033;-81
2021/09/12 02:03:31;;;;;;;14.48;7.63;;;17.70;93.70;;;;;;5013244;28;20057;-80
2021/09/12 02:05:56;;;;;;;11.07;8.00;;;17.70;93.70;;;;;;5014394;28;20108;-81
2021/09/12 02:08:22;;;;;;;14.85;7.85;;;17.70;93.90;;;;;;5013567;28;20101;-80
2021/09/12 02:10:48;;;;;;;12.48;7.82;;;17.60;93.70;;;;;;4996789;28;20076;-80
2021/09/12 02:13:14;;;;;;;13.68;7.78;;;17.50;93.60;;;;;;5014344;28;20038;-81
2021/09/12 02:15:40;;;;;;;22.52;7.30;;;17.50;93.60;;;;;;5013111;28;20061;-78
2021/09/12 02:18:05;;;;;;;15.63;7.38;;;17.50;93.40;;;;;;5013100;28;20080;-80
2021/09/12 02:20:31;;;;;;;15.32;5.88;;;17.40;93.30;;;;;;5013001;28;20034;-80
2021/09/12 02:22:57;;;;;;;18.42;7.00;;;17.40;93.30;;;;;;5014083;28;20386;-81
2021/09/12 02:25:23;;;;;;;10.25;5.25;;;17.40;93.20;;;;;;5013086;28;20048;-80
2021/09/12 02:27:48;;;;;;;10.25;5.40;;;17.30;93.20;;;;;;5012720;28;20100;-80
2021/09/12 02:30:15;;;;;;;12.15;5.13;;;17.30;93.10;;;;;;5013856;28;20530;-82
2021/09/12 02:32:41;;;;;;;12.20;4.93;;;17.20;93.00;;;;;;4996599;28;20023;-77
2021/09/12 02:35:08;;;;;;;10.77;4.97;;;17.20;92.80;;;;;;5012679;28;20121;-77
2021/09/12 02:37:33;;;;;;;9.32;4.93;;;17.10;92.80;;;;;;5012761;28;20034;-77
2021/09/12 02:39:59;;;;;;;9.23;4.40;;;17.10;92.70;;;;;;5013874;28;20037;-78
2021/09/12 02:42:25;;;;;;;10.85;4.43;;;17.00;92.60;;;;;;5014227;28;20048;-77
2021/09/12 02:44:50;;;;;;;11.20;4.65;;;17.00;92.60;;;;;;5012509;28;20033;-77
2021/09/12 02:47:16;;;;;;;14.23;5.38;;;16.90;92.60;;;;;;5014055;28;20026;-77
2021/09/12 02:49:42;;;;;;;12.75;4.78;;;16.90;92.50;;;;;;5013783;28;20072;-76
2021/09/12 02:52:07;;;;;;;8.65;4.28;;;16.90;92.50;;;;;;5012465;28;20498;-77
2021/09/12 02:54:34;;;;;;;12.18;4.88;;;16.80;92.50;;;;;;5012515;28;20109;-77
2021/09/12 02:57:00;;;;;;;14.63;4.72;;;16.80;92.40;;;;;;5013702;28;20053;-77
2021/09/12 02:59:26;;;;;;;13.57;4.70;;;16.80;92.40;;;;;;5012504;28;20501;-77
2021/09/12 03:01:51;;;;;;;14.02;5.55;;;16.70;92.30;;;;;;5012386;28;20178;-77
2021/09/12 03:04:17;;;;;;;11.88;4.80;;;16.70;92.30;;;;;;4996080;28;20026;-78
2021/09/12 03:06:42;;;;;;;14.75;5.05;;;16.60;92.30;;;;;;4995905;28;20034;-77
2021/09/12 03:09:08;;;;;;;10.75;5.45;;;16.60;92.40;;;;;;5013344;28;20037;-77
2021/09/12 03:11:33;;;;;;;16.83;6.03;;;16.60;92.40;;;;;;4995746;28;20030;-77
2021/09/12 03:13:59;;;;;;;11.65;5.57;;;16.50;92.40;;;;;;5012286;28;20062;-78
2021/09/12 03:16:25;;;;;;;10.30;5.45;;;16.50;92.40;;;;;;4995611;28;20026;-77
2021/09/12 03:18:51;;;;;;;13.70;6.15;;;16.40;92.40;;;;;;5028511;28;20030;-77
2021/09/12 03:21:18;;;;;;;17.60;6.55;;;16.40;92.40;;;;;;5012178;28;20527;-77
2021/09/12 03:23:43;;;;;;;11.20;5.95;;;16.30;92.50;;;;;;5012117;28;20092;-77
2021/09/12 03:26:09;;;;;;;14.10;6.00;;;16.30;92.50;;;;;;5012004;28;20475;-77
2021/09/12 03:28:35;;;;;;;12.45;6.55;;;16.30;92.60;;;;;;5011874;28;20107;-77
2021/09/12 03:31:01;;;;;;;14.13;6.40;;;16.20;92.60;;;;;;5012013;28;20042;-77
2021/09/12 03:33:26;;;;;;;13.23;6.93;;;16.20;92.60;;;;;;5011970;28;20037;-77
2021/09/12 03:35:52;;;;;;;13.65;6.40;;;16.20;92.70;;;;;;5013252;28;20096;-77
2021/09/12 03:38:17;;;;;;;13.38;7.20;;;16.10;92.70;;;;;;5013300;28;20030;-77
2021/09/12 03:40:43;;;;;;;9.50;5.78;;;16.10;92.70;;;;;;5013356;28;20121;-78
2021/09/12 03:43:09;;;;;;;15.65;5.85;;;16.10;92.80;;;;;;5012018;28;20589;-77
2021/09/12 03:45:35;;;;;;;13.35;6.35;;;16.00;92.80;;;;;;5011830;28;20079;-77
2021/09/12 03:48:01;;;;;;;15.70;8.00;;;16.00;92.80;;;;;;5013195;28;20045;-77
2021/09/12 03:50:27;;;;;;;14.30;7.53;;;16.00;92.80;;;;;;5013112;28;20471;-77
2021/09/12 03:52:53;;;;;;;15.73;7.75;;;15.90;92.90;;;;;;5011962;28;20018;-77
2021/09/12 03:55:19;;;;;;;16.52;7.97;;;15.90;92.90;;;;;;5011793;28;20161;-77
2021/09/12 03:57:44;;;;;;;14.40;7.25;;;15.90;93.00;;;;;;5012002;28;20754;-77
2021/09/12 04:00:11;;;;;;;15.90;7.55;;;15.80;93.00;;;;;;4995517;28;20030;-79
2021/09/12 04:02:37;;;;;;;15.90;7.40;;;15.70;93.00;;;;;;5012862;28;20482;-80
2021/09/12 04:05:03;;;;;;;18.85;8.90;;;15.70;93.10;;;;;;5011836;28;20037;-80
2021/09/12 04:07:29;;;;;;;18.58;7.97;;;15.70;93.20;;;;;;5011739;28;20108;-80
2021/09/12 04:09:54;;;;;;;13.93;8.05;;;15.70;93.20;;;;;;5011899;28;20448;-80
2021/09/12 04:12:20;;;;;;;17.25;7.40;;;15.70;93.30;;;;;;5011611;28;20478;-80
2021/09/12 04:14:45;;;;;;;19.73;8.25;;;15.70;93.30;;;;;;5011882;28;20069;-81
2021/09/12 04:17:11;;;;;;;15.93;7.88;;;15.60;93.30;;;;;;5011650;28;20105;-80
2021/09/12 04:19:37;;;;;;;16.08;7.82;;;15.60;93.30;;;;;;4995278;28;20026;-80
2021/09/12 04:22:03;;;;;;;16.95;8.05;;;15.60;93.60;;;;;;5030562;28;20042;-79
2021/09/12 04:24:28;;;;;;;15.35;7.38;;;15.60;93.40;;;;;;5016349;28;20038;-80
2021/09/12 04:26:54;;;;;;;17.08;7.78;;;15.50;93.50;;;;;;5031546;28;20378;-81
2021/09/12 04:29:21;;;;;;;15.70;7.70;;;15.50;93.50;;;;;;5014766;28;20490;-80
2021/09/12 04:31:46;;;;;;;16.05;8.68;;;15.50;93.50;;;;;;5016108;28;20120;-80
2021/09/12 04:34:12;;;;;;;21.63;8.43;;;15.50;93.60;;;;;;5016298;28;20573;-78
2021/09/12 04:36:38;;;;;;;22.05;8.90;;;15.40;93.60;;;;;;5016274;28;20049;-80
2021/09/12 04:39:04;;;;;;;16.70;8.88;;;15.40;93.60;;;;;;5016049;28;20088;-79
2021/09/12 04:41:30;;;;;;;21.13;9.00;;;15.40;93.70;;;;;;5014876;28;20046;-77
2021/09/12 04:43:55;;;;;;;20.25;8.95;;;15.40;93.70;;;;;;4998317;28;20048;-77
2021/09/12 04:46:21;;;;;;;15.60;9.52;;;15.40;93.80;;;;;;5014885;28;20030;-77
2021/09/12 04:48:46;;;;;;;17.95;9.68;;;15.40;93.80;;;;;;5014701;28;20030;-80
2021/09/12 04:51:12;;;;;;;22.27;9.25;;;15.30;93.80;;;;;;5015722;28;20121;-79
2021/09/12 04:53:38;;;;;;;18.88;9.68;;;15.30;93.80;;;;;;5013175;28;20034;-79
2021/09/12 04:56:06;;;;;;;15.05;9.40;;;15.30;93.90;;;;;;5013191;28;20029;-79
2021/09/12 04:58:32;;;;;;;19.35;10.48;;;15.20;93.90;;;;;;5010868;28;20402;-79
2021/09/12 05:00:58;;;;;;;21.65;10.38;;;15.20;93.90;;;;;;4996043;28;20196;-80
2021/09/12 05:03:23;;;;;;;17.45;10.60;;;15.20;93.90;;;;;;4994526;28;20391;-80
2021/09/12 05:05:49;;;;;;;19.05;10.35;;;15.20;94.00;;;;;;4995994;28;20030;-80
2021/09/12 05:08:15;;;;;;;19.27;10.95;;;15.20;94.00;;;;;;5010985;28;20475;-80
2021/09/12 05:10:40;;;;;;;19.92;10.57;;;15.10;94.00;;;;;;4995884;28;20039;-80
2021/09/12 05:13:06;;;;;;;18.48;9.75;;;15.10;94.00;;;;;;5010912;28;20038;-80
2021/09/12 05:15:32;;;;;;;21.00;11.25;;;15.10;94.00;;;;;;4995799;28;20095;-80
2021/09/12 05:17:57;;;;;;;19.50;11.02;;;15.10;94.00;;;;;;4995783;28;20045;-80
2021/09/12 05:20:23;;;;;;;19.33;11.23;;;15.10;94.00;;;;;;4995724;28;20035;-79
2021/09/12 05:22:50;;;;;;;20.80;11.02;;;15.00;94.10;;;;;;4995750;28;20368;-80
2021/09/12 05:25:16;;;;;;;18.95;10.45;;;15.00;94.40;;;;;;4995566;28;20038;-79
2021/09/12 05:27:42;;;;;;;21.45;12.20;;;15.00;94.20;;;;;;5010477;28;20049;-79
2021/09/12 05:30:08;;;;;;;21.00;10.57;;;15.00;94.20;;;;;;4995586;28;20454;-79
2021/09/12 05:32:34;;;;;;;19.73;10.35;;;15.00;94.20;;;;;;4994444;28;20030;-79
2021/09/12 05:35:00;;;;;;;20.17;10.90;;;15.00;94.30;;;;;;5010560;28;20376;-79
2021/09/12 05:37:26;;;;;;;20.00;11.77;;;15.00;94.30;;;;;;5026997;28;20393;-80
2021/09/12 05:39:51;;;;;;;20.48;11.20;;;15.00;94.50;;;;;;5026094;28;20034;-78
2021/09/12 05:42:17;;;;;;;25.25;11.32;;;15.00;94.30;;;;;;5015430;28;20091;-80
2021/09/12 05:44:42;;;;;;;19.58;11.25;;;15.00;94.30;;;;;;5015114;28;20128;-80
2021/09/12 05:47:08;;;;;;;22.77;11.55;;;14.90;94.30;;;;;;5019877;28;20034;-79
2021/09/12 05:49:34;;;;;;;23.02;11.60;;;14.90;94.40;;;;;;5013654;28;20034;-80
2021/09/12 05:51:59;;;;;;;17.98;11.10;;;14.90;94.40;;;;;;4979807;28;20092;-77
2021/09/12 05:54:25;;;;;;;20.63;11.60;;;14.90;94.40;;;;;;5028709;28;20061;-77
2021/09/12 05:56:51;;;;;;;21.83;11.30;;;15.00;94.50;;;;;;4997007;28;20026;-76
2021/09/12 05:59:17;;;;;;;22.98;12.65;;;14.90;94.50;;;;;;4996978;28;20079;-77
2021/09/12 06:01:42;;;;;;;19.50;11.82;;;14.90;94.50;;;;;;5014428;28;20116;-79
2021/09/12 06:04:08;;;;;;;18.17;10.77;;;15.00;94.50;;;;;;5014292;28;20061;-80
2021/09/12 06:06:34;;;;;;;20.10;11.63;;;15.00;94.50;;;;;;4996835;28;20041;-79
2021/09/12 06:08:59;;;;;;;21.83;11.77;;;15.00;94.50;;;;;;5014422;28;20034;-79
2021/09/12 06:11:26;;;;;;;21.00;11.82;;;14.90;94.50;;;;;;5029504;28;20030;-80
2021/09/12 06:13:51;;;;;;;21.35;12.65;;;14.90;94.80;;;;;;5029396;28;20033;-80
2021/09/12 06:16:17;;;;;;;19.38;12.57;;;14.90;94.50;;;;;;4980373;28;20026;-77
2021/09/12 06:18:43;;;;;;;21.00;12.52;;;15.00;94.50;;;;;;5013152;28;20133;-77
2021/09/12 06:21:09;;;;;;;20.80;11.95;;;14.90;94.50;;;;;;5012898;28;20506;-77
2021/09/12 06:23:35;;;;;;;23.08;11.00;;;14.90;94.60;;;;;;5014101;28;20042;-77
2021/09/12 06:26:00;;;;;;;21.83;12.85;;;14.90;94.60;;;;;;5012893;28;20165;-80
2021/09/12 06:28:26;;;;;;;25.45;13.18;;;15.00;94.60;;;;;;4996302;28;20057;-77
2021/09/12 06:30:52;;;;;;;22.35;12.35;;;15.00;94.70;;;;;;5012699;28;20037;-78
2021/09/12 06:33:17;;;;;;;23.40;12.15;;;15.00;94.70;;;;;;5029258;28;20061;-80
2021/09/12 06:35:43;;;;;;;24.15;13.00;;;15.00;94.70;;;;;;4996401;28;20454;-79
2021/09/12 06:38:09;;;;;;;22.23;11.82;;;15.00;94.70;;;;;;4996301;28;20026;-78
2021/09/12 06:40:34;;;;;;;22.38;12.30;;;15.10;94.70;;;;;;5012689;28;20029;-77
2021/09/12 06:43:02;;;;;;;21.88;11.95;;;15.10;94.60;;;;;;5029049;28;20080;-79
2021/09/12 06:45:28;;;;;;;19.77;12.20;;;15.10;94.60;;;;;;5012564;28;20548;-78
2021/09/12 06:47:54;;;;;;;20.92;12.32;;;15.10;94.60;;;;;;5029104;28;20569;-78
2021/09/12 06:50:20;;;;;;;17.98;11.15;;;15.20;94.60;;;;;;5013643;28;20121;-80
2021/09/12 06:52:46;;;;;;;23.35;11.50;;;15.30;94.50;;;;;;5013842;28;20034;-76
2021/09/12 06:55:12;;;;;;;19.23;10.63;;;15.20;94.40;;;;;;5013704;28;20389;-76
2021/09/12 06:57:38;;;;;;;20.95;10.15;;;15.20;94.40;;;;;;5028820;28;20482;-77
2021/09/12 07:00:05;;;;;;;18.05;9.52;;;15.30;94.40;;;;;;5028710;28;20030;-76
2021/09/12 07:02:31;;;;;;;19.30;10.00;;;15.40;94.40;;;;;;5013513;28;20492;-77
2021/09/12 07:04:56;;;;;;;20.63;9.77;;;15.40;94.40;;;;;;5028689;28;20145;-77
2021/09/12 07:07:22;;;;;;;13.73;8.45;;;15.40;94.30;;;;;;5012297;28;20083;-77
2021/09/12 07:09:48;;;;;;;21.92;9.70;;;15.40;94.30;;;;;;5013391;28;20037;-76
2021/09/12 07:12:14;;;;;;;18.45;8.98;;;15.50;94.30;;;;;;5013253;28;20041;-78
2021/09/12 07:14:39;;;;;;;19.67;9.38;;;15.50;94.20;;;;;;5013525;28;20490;-78
2021/09/12 07:17:06;;;;;;;17.27;9.25;;;15.50;94.20;;;;;;5012079;28;20462;-79
2021/09/12 07:19:32;;;;;;;16.23;8.77;;;15.50;94.20;;;;;;5028826;28;20121;-77
2021/09/12 07:21:58;;;;;;;19.70;8.20;;;15.60;94.20;;;;;;5013351;28;20126;-77
2021/09/12 07:24:23;;;;;;;16.88;8.35;;;15.60;94.20;;;;;;5013460;28;20026;-77
2021/09/12 07:26:49;;;;;;;21.40;8.23;;;15.60;94.20;;;;;;5013313;28;20049;-77
2021/09/12 07:29:15;;;;;;;18.35;9.02;;;15.70;94.20;;;;;;5012066;28;20066;-76
2021/09/12 07:31:41;;;;;;;14.30;7.85;;;15.70;94.20;;;;;;5011940;28;20050;-76
2021/09/12 07:34:06;;;;;;;16.77;9.10;;;15.80;94.20;;;;;;5013250;28;20037;-76
2021/09/12 07:36:32;;;;;;;13.32;8.23;;;15.80;94.20;;;;;;5028252;28;20030;-77
2021/09/12 07:38:58;;;;;;;17.55;10.10;;;15.90;94.20;;;;;;5011835;28;20034;-76
2021/09/12 07:41:24;;;;;;;15.88;9.15;;;15.90;94.10;;;;;;5011894;28;20061;-77
2021/09/12 07:43:50;;;;;;;18.17;7.90;;;16.00;94.10;;;;;;5011767;28;20072;-77
2021/09/12 07:46:15;;;;;;;17.92;8.15;;;16.10;94.00;;;;;;5011929;28;20030;-76
2021/09/12 07:48:41;;;;;;;15.90;8.07;;;16.10;94.00;;;;;;4995448;28;20049;-77
2021/09/12 07:51:07;;;;;;;15.30;8.43;;;16.10;94.00;;;;;;5013199;28;20037;-78
2021/09/12 07:53:33;;;;;;;15.57;7.85;;;16.20;93.90;;;;;;5013052;28;20139;-79
2021/09/12 07:55:58;;;;;;;16.15;8.32;;;16.30;93.90;;;;;;5013949;28;20437;-80
2021/09/12 07:58:24;;;;;;;17.45;10.52;;;16.40;93.90;;;;;;5031920;28;20029;-80
2021/09/12 08:00:50;;;;;;;16.92;10.63;;;16.40;93.70;;;;;;5032023;28;20061;-80
2021/09/12 08:03:17;;;;;;;22.42;10.38;;;16.50;93.70;;;;;;5032059;28;20391;-80
2021/09/12 08:05:43;;;;;;;20.08;10.70;;;16.50;93.60;;;;;;5015345;28;20038;-78
2021/09/12 08:08:08;;;;;;;19.10;9.95;;;16.60;93.50;;;;;;5016876;28;20061;-78
2021/09/12 08:10:34;;;;;;;17.48;8.90;;;16.60;93.40;;;;;;5016549;28;20034;-79
2021/09/12 08:12:59;;;;;;;18.33;9.90;;;16.70;93.40;;;;;;5016544;28;20034;-80
2021/09/12 08:15:25;;;;;;;23.90;10.25;;;16.70;93.40;;;;;;5031491;28;20076;-81
2021/09/12 08:17:51;;;;;;;19.05;9.65;;;16.80;93.40;;;;;;5016193;28;20040;-79
2021/09/12 08:20:16;;;;;;;15.95;9.43;;;16.90;93.30;;;;;;5015279;28;20386;-78
2021/09/12 08:22:42;;;;;;;17.25;9.02;;;16.90;93.20;;;;;;5016341;28;20371;-79
2021/09/12 08:25:08;;;;;;;21.33;9.18;;;16.90;93.20;;;;;;5015123;28;20034;-79
2021/09/12 08:27:34;;;;;;;19.48;9.45;;;17.00;93.20;;;;;;5016216;28;20057;-79
2021/09/12 08:30:00;;;;;;;16.35;9.63;;;17.10;93.00;;;;;;5016568;28;20030;-82
2021/09/12 08:32:27;;;;;;;17.55;9.18;;;17.10;93.00;;;;;;5015030;28;20046;-80
2021/09/12 08:34:53;;;;;;;15.50;8.20;;;17.20;92.90;;;;;;5016093;28;20449;-79
2021/09/12 08:37:20;;;;;;;21.35;7.70;;;17.30;92.90;;;;;;4997020;28;20068;-81
2021/09/12 08:39:46;;;;;;;18.73;9.95;;;17.40;92.90;;;;;;5013608;28;20028;-77
2021/09/12 08:42:16;;;;;;;16.92;9.25;;;17.40;92.70;;;;;;5014497;28;20034;-78
2021/09/12 08:44:47;;;;;;;18.02;9.45;;;17.50;92.50;;;;;;5014880;28;20038;-78
2021/09/12 08:47:13;;;;;;;19.20;9.05;;;17.60;92.60;;;;;;5014581;28;20081;-78
2021/09/12 08:49:41;;;;;;;16.10;9.27;;;17.70;92.60;;;;;;5013713;28;20061;-76
2021/09/12 08:52:07;;;;;;;12.32;8.15;;;17.90;92.50;;;;;;5030803;28;20022;-77
2021/09/12 08:54:32;;;;;;;17.05;8.85;;;18.10;92.50;;;;;;4997972;28;20022;-77
2021/09/12 08:56:58;;;;;;;15.00;7.38;;;18.20;92.80;;;;;;5030884;28;20072;-76
2021/09/12 08:59:32;;;;;;;13.35;8.15;;;18.30;91.90;;;;;;5014323;28;20025;-76
2021/09/12 09:02:00;;;;;;;14.00;8.57;;;18.40;92.10;;;;;;5015615;28;20026;-77
2021/09/12 09:04:34;;;;;;;12.95;7.80;;;18.40;91.40;;;;;;5015538;28;20030;-80
2021/09/12 09:07:10;;;;;;;15.93;8.45;;;18.40;91.20;;;;;;5015247;28;20101;-77
2021/09/12 09:09:42;;;;;;;19.08;8.68;;;18.50;91.10;;;;;;5015450;28;20489;-79
2021/09/12 09:12:33;;;;;;;22.50;9.88;;;18.50;90.70;;;;;;5030447;28;20386;-80
2021/09/12 09:14:59;;;;;;;16.50;7.88;;;18.60;90.80;;;;;;5015195;28;20046;-78
2021/09/12 09:17:25;;;;;;;13.88;6.88;;;18.70;90.90;;;;;;5014985;28;20096;-78
2021/09/12 09:19:52;;;;;;;13.57;7.95;;;18.80;90.90;;;;;;5015050;28;20478;-77
2021/09/12 09:22:36;;;;;;;16.02;8.40;;;19.00;90.80;;;;;;5015129;28;20415;-77
2021/09/12 09:25:09;;;;;;;14.07;7.65;;;19.10;90.70;;;;;;5015259;28;20063;-78
2021/09/12 09:27:50;;;;;;;17.67;8.98;;;19.30;90.60;;;;;;5014996;28;20117;-78
2021/09/12 09:30:15;;;;;;;12.75;7.82;;;19.40;89.90;;;;;;5030069;28;20128;-77
2021/09/12 09:32:41;;;;;;;18.88;9.23;;;19.50;89.20;;;;;;5013657;28;20116;-78
2021/09/12 09:35:07;;;;;;;11.00;6.93;;;19.60;87.90;;;;;;5023797;28;20121;-78
2021/09/12 09:37:32;;;;;;;16.27;7.95;;;19.70;87.20;;;;;;5020086;28;20028;-77
2021/09/12 09:39:59;;;;;;;15.27;9.05;;;19.70;87.00;;;;;;5013708;28;20034;-76
2021/09/12 09:42:36;;;;;;;16.00;7.40;;;19.70;86.30;;;;;;5013646;28;20049;-78
2021/09/12 09:45:08;;;;;;;14.52;7.45;;;19.80;86.20;;;;;;4997743;28;20382;-77
2021/09/12 09:47:35;;;;;;;12.80;7.05;;;19.90;86.40;;;;;;5015049;28;20054;-78
2021/09/12 09:50:07;;;;;;;14.45;8.07;;;19.90;86.20;;;;;;5015007;28;20037;-76
2021/09/12 09:52:34;;;;;;;11.60;7.45;;;20.00;85.60;;;;;;5015118;28;20030;-78
2021/09/12 09:55:01;;;;;;;13.35;7.85;;;20.00;85.20;;;;;;5013726;28;20025;-77
2021/09/12 09:57:27;;;;;;;14.18;6.95;;;20.10;85.40;;;;;;5030254;28;20179;-77
2021/09/12 09:59:52;;;;;;;11.55;7.18;;;20.10;85.20;;;;;;5015198;28;20429;-77
2021/09/12 10:02:19;;;;;;;13.32;7.00;;;20.30;85.20;;;;;;5013698;28;20034;-79
2021/09/12 10:04:45;;;;;;;13.13;7.15;;;20.30;84.20;;;;;;5030297;28;20152;-77
2021/09/12 10:07:12;;;;;;;11.63;7.47;;;20.30;84.10;;;;;;5013657;28;20077;-77
2021/09/12 10:09:38;;;;;;;13.25;7.30;;;20.40;83.70;;;;;;5014768;28;20034;-77
2021/09/12 10:12:08;;;;;;;13.20;7.93;;;20.40;84.00;;;;;;5013480;28;20034;-76
2021/09/12 10:14:58;;;;;;;13.32;6.88;;;20.40;83.60;;;;;;5013461;28;20029;-77
2021/09/12 10:17:28;;;;;;;16.73;9.48;;;20.60;83.50;;;;;;5014817;28;20022;-79
2021/09/12 10:20:24;;;;;;;12.02;7.07;;;20.60;83.20;;;;;;5013937;28;20022;-80
2021/09/12 10:22:53;;;;;;;13.63;7.95;;;20.60;83.10;;;;;;5028485;28;20486;-78
2021/09/12 10:25:23;;;;;;;14.77;8.48;;;20.60;82.90;;;;;;5011038;28;20030;-77
2021/09/12 10:28:04;;;;;;;14.75;9.57;;;20.60;82.60;;;;;;5013823;28;20049;-83
2021/09/12 10:30:37;;;;;;;16.73;10.25;;;20.50;82.50;;;;;;5013573;28;20104;-80
2021/09/12 10:33:05;;;;;;;14.98;8.65;;;20.50;82.50;;;;;;5014208;28;20109;-83
2021/09/12 10:35:47;;;;;;;14.52;9.25;;;20.40;82.50;;;;;;5029101;28;20033;-82
2021/09/12 10:38:22;;;;;;;15.98;9.10;;;20.40;82.30;;;;;;5029058;28;20037;-81
2021/09/12 10:40:48;;;;;;;14.60;9.27;;;20.40;82.50;;;;;;5013511;28;20033;-78
2021/09/12 10:43:30;;;;;;;16.60;10.25;;;20.40;82.70;;;;;;5013830;28;20034;-82
2021/09/12 10:46:01;;;;;;;16.38;9.57;;;20.40;82.80;;;;;;5013798;28;20025;-82
2021/09/12 10:48:28;;;;;;;17.38;11.20;;;20.40;83.00;;;;;;5014003;28;20474;-82
2021/09/12 10:50:54;;;;;;;15.57;10.23;;;20.40;83.50;;;;;;5013660;28;20064;-86
2021/09/12 10:53:45;;;;;;;17.08;12.52;;;20.40;82.80;;;;;;5012632;28;20080;-83
2021/09/12 10:56:19;;;;;;;15.95;11.48;;;20.40;82.80;;;;;;5028879;28;20021;-84
2021/09/12 10:58:46;;;;;;;16.90;12.07;;;20.40;83.00;;;;;;5013633;28;20026;-83
2021/09/12 11:01:13;;;;;;;23.50;13.85;;;20.40;83.00;;;;;;5012480;28;20081;-86
2021/09/12 11:03:45;;;;;;;18.33;12.70;;;20.40;83.00;;;;;;4996524;28;20037;-85
2021/09/12 11:06:20;;;;;;;26.48;14.13;;;20.30;82.80;;;;;;5013906;28;20040;-86
2021/09/12 11:08:45;;;;;;;24.83;15.05;;;20.30;83.00;;;;;;4996973;28;20482;-82
2021/09/12 11:11:11;;;;;;;19.85;13.40;;;20.20;82.90;;;;;;5013580;28;20128;-83
2021/09/12 11:13:38;;;;;;;23.55;13.73;;;20.30;83.00;;;;;;4995962;28;20084;-81
2021/09/12 11:16:06;;;;;;;16.38;11.20;;;20.30;83.60;;;;;;5012168;28;20030;-83
2021/09/12 11:19:02;;;;;;;20.50;12.70;;;20.80;85.10;;;;;;5013438;28;20144;-81
2021/09/12 11:21:35;;;;;;;17.65;10.18;;;21.50;84.70;;;;;;5013229;28;20038;-82
2021/09/12 11:24:04;;;;;;;16.25;10.77;;;21.90;83.80;;;;;;5028678;28;20120;-77
2021/09/12 11:26:51;;;;;;;16.48;10.35;;;22.30;82.30;;;;;;5013402;28;20057;-85
2021/09/12 11:29:21;;;;;;;17.00;10.77;;;22.40;79.80;;;;;;5013030;28;20421;-84
2021/09/12 11:31:52;;;;;;;19.55;11.95;;;22.30;79.00;;;;;;5017721;28;20026;-83
2021/09/12 11:34:21;;;;;;;17.20;12.75;;;22.20;78.10;;;;;;5016169;28;20116;-82
2021/09/12 11:36:50;;;;;;;21.33;12.43;;;22.00;77.60;;;;;;5010117;28;20049;-80
2021/09/12 11:39:19;;;;;;;19.30;13.18;;;22.00;78.50;;;;;;4998196;28;20037;-83
2021/09/12 11:41:45;;;;;;;20.15;13.45;;;21.80;77.70;;;;;;4995880;28;20088;-82
2021/09/12 11:44:11;;;;;;;17.88;12.73;;;21.70;77.80;;;;;;4996141;28;20487;-82
2021/09/12 11:46:48;;;;;;;19.42;12.65;;;21.60;78.30;;;;;;4996373;28;20033;-80
2021/09/12 11:49:15;;;;;;;21.65;13.75;;;21.50;78.70;;;;;;4997935;28;20033;-84
2021/09/12 11:51:45;;;;;;;21.20;14.98;;;21.50;78.80;;;;;;4998314;28;20030;-84
2021/09/12 11:54:27;;;;;;;20.23;13.55;;;21.40;78.60;;;;;;4996008;28;20050;-79
2021/09/12 11:57:11;;;;;;;19.15;13.05;;;21.50;79.00;;;;;;4997385;28;20043;-78
2021/09/12 11:59:48;;;;;;;17.38;12.63;;;21.60;79.00;;;;;;4997279;28;20101;-78
2021/09/12 12:02:24;;;;;;;18.92;13.70;;;21.70;79.10;;;;;;4997160;28;20533;-78
2021/09/12 12:04:51;;;;;;;19.73;13.70;;;21.90;78.70;;;;;;4995900;28;20449;-77
2021/09/12 12:07:19;;;;;;;16.48;12.50;;;22.10;78.60;;;;;;4997484;28;20053;-78
2021/09/12 12:09:49;;;;;;;17.30;13.73;;;22.40;78.30;;;;;;4998194;28;20088;-77
2021/09/12 12:12:17;;;;;;;23.35;13.02;;;22.60;77.00;;;;;;5010743;28;20113;-77
2021/09/12 12:14:43;;;;;;;20.58;13.82;;;22.60;76.50;;;;;;5015200;28;20397;-82
2021/09/12 12:17:16;;;;;;;17.75;13.13;;;22.70;76.60;;;;;;5016363;28;20018;-84
2021/09/12 12:19:43;;;;;;;16.23;12.77;;;22.90;76.10;;;;;;5015099;28;20409;-80
2021/09/12 12:22:09;;;;;;;17.90;12.85;;;23.00;75.50;;;;;;5016340;28;20034;-86
2021/09/12 12:24:44;;;;;;;18.95;12.85;;;23.20;75.20;;;;;;4999261;28;20144;-81
2021/09/12 12:27:13;;;;;;;19.52;13.50;;;23.30;74.40;;;;;;5015180;28;20021;-82
2021/09/12 12:29:40;;;;;;;17.45;12.50;;;23.40;74.50;;;;;;5016146;28;20050;-84
2021/09/12 12:32:08;;;;;;;16.23;11.43;;;23.50;74.20;;;;;;5031426;28;20030;-84
2021/09/12 12:34:51;;;;;;;17.10;11.23;;;23.50;74.00;;;;;;5031425;28;20177;-82